KASG

Springdale Municipal Airport

Springdale, Arkansas, USA
METAR KASG 212248Z 34009KT 10SM SCT045 27/17 A3015
Observed Flight Rules
Aug-21 @ 22:48 UTC (59 minutes ago) Visual Flight Rules
Wind Visibility Clouds
340° at 9 knots 10 miles
  • Scattered at 4,500' AGL
Temperatures Readings
Current 27°C / 81°F
Dewpoint 17°C / 63°F
Humidity 54%
Altimeter 30.15" Hg
Pressure 1021 hPa
Elevation 412
METAR KASG 212248Z 34009KT 10SM SCT045 27/17 A3015
Observed Flight Rules
Aug-21 @ 22:48 UTC
(59 minutes ago)
VFR
Wind Visibility
340° at 9 knots 10 miles
Clouds
  • Scattered at 4,500' AGL
Temperature Dewpoint
27°C / 81°F 17°C / 63°F
Humidity Altimeter Pressure
54% 30.15" Hg 1021 hPa